Time;durP1;ratioP1;P1;durP2;ratioP2;P2;SDS_P1;SDS_P2;PMS_P1;PMS_P2;Temp;Humidity;BMP_temperature;BMP_pressure;BME280_temperature;BME280_humidity;BME280_pressure;Samples;Min_cycle;Max_cycle;Signal;HPM_P1;HPM_P2
2022/12/25 00:01:57;;;;;;;21.45;11.40;;;;;;;;;;5033615;28;20101;-78
2022/12/25 00:04:22;;;;;;;19.67;10.82;;;;;;;;;;5017126;28;20037;-78
2022/12/25 00:06:48;;;;;;;20.00;10.45;;;;;;;;;;5034439;28;20042;-78
2022/12/25 00:09:13;;;;;;;20.63;12.23;;;;;;;;;;5036721;28;20091;-78
2022/12/25 00:11:38;;;;;;;23.42;12.02;;;;;;;;;;5038154;28;20033;-78
2022/12/25 00:14:04;;;;;;;21.10;11.68;;;;;;;;;;5035901;28;20070;-77
2022/12/25 00:16:30;;;;;;;34.53;14.20;;;;;;;;;;5033965;28;20458;-78
2022/12/25 00:18:55;;;;;;;24.67;12.55;;;;;;;;;;5034435;28;20033;-77
2022/12/25 00:21:21;;;;;;;24.83;12.80;;;;;;;;;;5034404;28;20037;-78
2022/12/25 00:23:46;;;;;;;24.25;12.38;;;;;;;;;;5034242;28;20017;-77
2022/12/25 00:26:16;;;;;;;24.30;13.05;;;;;;;;;;5032999;28;20092;-77
2022/12/25 00:28:41;;;;;;;22.27;12.20;;;;;;;;;;5033272;28;20059;-78
2022/12/25 00:31:12;;;;;;;24.25;12.15;;;;;;;;;;5017259;28;20139;-77
2022/12/25 00:33:37;;;;;;;;;;;;;;;;;;5000794;28;20037;-78
2022/12/25 00:36:05;;;;;;;19.10;11.80;;;;;;;;;;5016665;28;20203;-77
2022/12/25 00:38:30;;;;;;;25.75;13.10;;;;;;;;;;5034104;28;20029;-78
2022/12/25 00:40:56;;;;;;;23.20;12.50;;;;;;;;;;5049656;28;20041;-77
2022/12/25 00:43:22;;;;;;;23.15;12.30;;;;;;;;;;5032816;28;20068;-78
2022/12/25 00:45:58;;;;;;;26.00;13.00;;;;;;;;;;5016635;28;20466;-78
2022/12/25 00:48:26;;;;;;;22.40;12.45;;;;;;;;;;5000259;28;20037;-77
2022/12/25 00:50:55;;;;;;;21.77;12.98;;;;;;;;;;5016432;28;20044;-78
2022/12/25 00:53:21;;;;;;;22.63;12.35;;;;;;;;;;5033961;28;20033;-77
2022/12/25 00:55:55;;;;;;;26.92;12.63;;;;;;;;;;5016292;28;20037;-77
2022/12/25 00:58:21;;;;;;;23.75;12.30;;;;;;;;;;5016204;28;20095;-77
2022/12/25 01:00:49;;;;;;;23.10;12.30;;;;;;;;;;5032970;28;20037;-77
2022/12/25 01:03:15;;;;;;;20.05;11.63;;;;;;;;;;5034044;28;20036;-77
2022/12/25 01:05:41;;;;;;;21.90;12.40;;;;;;;;;;5015968;28;20033;-78
2022/12/25 01:08:06;;;;;;;22.00;11.75;;;;;;;;;;5034272;28;20518;-78
2022/12/25 01:10:32;;;;;;;21.45;11.80;;;;;;;;;;5016526;28;20041;-77
2022/12/25 01:12:57;;;;;;;23.98;11.75;;;;;;;;;;5016225;28;20033;-77
2022/12/25 01:15:22;;;;;;;24.92;11.93;;;;;;;;;;5033898;28;20026;-77
2022/12/25 01:17:48;;;;;;;22.13;11.82;;;;;;;;;;5034006;28;20038;-77
2022/12/25 01:20:14;;;;;;;21.27;11.48;;;;;;;;;;5015786;28;20371;-78
2022/12/25 01:22:40;;;;;;;22.10;11.35;;;;;;;;;;5016298;28;20041;-77
2022/12/25 01:25:05;;;;;;;20.45;10.52;;;;;;;;;;5016266;28;20518;-77
2022/12/25 01:27:31;;;;;;;18.63;10.55;;;;;;;;;;5016222;28;20041;-77
2022/12/25 01:29:57;;;;;;;20.15;10.52;;;;;;;;;;5044230;28;20052;-78
2022/12/25 01:32:22;;;;;;;19.33;10.98;;;;;;;;;;5052568;28;20068;-77
2022/12/25 01:34:48;;;;;;;20.23;11.18;;;;;;;;;;5053355;28;20061;-77
2022/12/25 01:37:13;;;;;;;19.38;10.43;;;;;;;;;;5035963;28;20036;-77
2022/12/25 01:39:39;;;;;;;21.20;9.93;;;;;;;;;;5053661;28;21382;-78
2022/12/25 01:42:04;;;;;;;17.38;10.02;;;;;;;;;;5052443;28;20373;-77
2022/12/25 01:44:36;;;;;;;24.85;10.27;;;;;;;;;;5053649;28;20374;-77
2022/12/25 01:47:02;;;;;;;21.38;10.88;;;;;;;;;;5053843;28;20028;-78
2022/12/25 01:49:27;;;;;;;19.88;10.68;;;;;;;;;;5035277;28;20075;-77
2022/12/25 01:51:57;;;;;;;21.40;11.10;;;;;;;;;;5053458;28;20075;-77
2022/12/25 01:54:28;;;;;;;18.02;10.63;;;;;;;;;;5035787;28;20473;-77
2022/12/25 01:56:54;;;;;;;16.27;10.18;;;;;;;;;;5052302;28;20041;-77
2022/12/25 01:59:20;;;;;;;21.38;10.52;;;;;;;;;;5035665;28;20060;-78
2022/12/25 02:01:46;;;;;;;21.30;10.23;;;;;;;;;;5021439;28;20029;-78
2022/12/25 02:04:39;;;;;;;17.58;10.18;;;;;;;;;;5039117;28;20033;-78
2022/12/25 02:07:11;;;;;;;22.70;12.15;;;;;;;;;;5041570;28;20033;-77
2022/12/25 02:09:36;;;;;;;26.08;12.25;;;;;;;;;;5057037;28;20033;-77
2022/12/25 02:12:02;;;;;;;23.55;12.88;;;;;;;;;;5038945;28;20114;-77
2022/12/25 02:14:29;;;;;;;29.73;14.30;;;;;;;;;;5039124;28;20124;-78
2022/12/25 02:17:09;;;;;;;27.50;13.13;;;;;;;;;;5055662;28;20116;-77
2022/12/25 02:20:12;;;;;;;30.88;15.80;;;;;;;;;;5055362;28;20036;-77
2022/12/25 02:23:02;;;;;;;28.40;15.13;;;;;;;;;;5056774;28;20025;-78
2022/12/25 02:25:27;;;;;;;25.42;14.63;;;;;;;;;;5056717;28;20084;-78
2022/12/25 02:28:27;;;;;;;26.33;14.70;;;;;;;;;;5056596;28;20029;-77
2022/12/25 02:30:55;;;;;;;21.45;13.48;;;;;;;;;;5010814;28;20045;-78
2022/12/25 02:34:02;;;;;;;28.42;14.75;;;;;;;;;;5051551;28;20033;-78
2022/12/25 02:36:39;;;;;;;30.40;14.80;;;;;;;;;;5022265;28;20076;-77
2022/12/25 02:42:04;;;;;;;31.05;15.10;;;;;;;;;;5022711;28;20099;-77
2022/12/25 03:06:41;;;;;;;23.42;12.80;;;;;;;;;;5034898;28;20115;-78
2022/12/25 03:12:04;;;;;;;22.13;11.85;;;;;;;;;;5013109;28;20057;-77
2022/12/25 03:17:13;;;;;;;18.50;9.63;;;;;;;;;;5035388;28;20184;-77
2022/12/25 03:27:56;;;;;;;20.38;10.55;;;;;;;;;;5034369;28;20088;-77
2022/12/25 03:33:34;;;;;;;19.25;10.90;;;;;;;;;;5054132;28;20040;-77
2022/12/25 03:36:05;;;;;;;19.63;11.63;;;;;;;;;;5051971;28;20135;-76
2022/12/25 04:36:44;;;;;;;19.42;10.02;;;;;;;;;;5034215;28;20052;-78
2022/12/25 04:39:09;;;;;;;16.95;9.80;;;;;;;;;;5034495;28;20459;-79
2022/12/25 04:41:35;;;;;;;19.75;10.73;;;;;;;;;;5034237;28;20084;-78
2022/12/25 04:44:00;;;;;;;19.85;10.70;;;;;;;;;;5034089;28;20080;-78
2022/12/25 04:46:26;;;;;;;19.17;10.45;;;;;;;;;;5016517;28;20032;-78
2022/12/25 04:48:51;;;;;;;24.67;10.30;;;;;;;;;;5034107;28;20053;-78
2022/12/25 04:51:18;;;;;;;21.02;10.85;;;;;;;;;;5016369;28;20079;-79
2022/12/25 04:53:44;;;;;;;21.50;10.10;;;;;;;;;;5034323;28;20049;-78
2022/12/25 04:56:09;;;;;;;17.40;10.18;;;;;;;;;;5016507;28;20474;-78
2022/12/25 04:58:35;;;;;;;18.30;10.55;;;;;;;;;;5032628;28;20119;-78
2022/12/25 05:01:01;;;;;;;19.50;10.00;;;;;;;;;;5000086;28;20067;-78
2022/12/25 05:03:27;;;;;;;19.33;10.60;;;;;;;;;;5033956;28;20025;-78
2022/12/25 05:05:53;;;;;;;22.33;10.45;;;;;;;;;;5049669;28;20032;-78
2022/12/25 05:08:18;;;;;;;17.30;10.25;;;;;;;;;;5034098;28;20362;-78
2022/12/25 05:10:43;;;;;;;18.42;10.35;;;;;;;;;;5016442;28;20354;-77
2022/12/25 05:13:09;;;;;;;17.95;10.48;;;;;;;;;;5016279;28;20094;-77
2022/12/25 05:15:34;;;;;;;17.30;9.98;;;;;;;;;;5016343;28;20026;-78
2022/12/25 05:18:00;;;;;;;18.77;10.25;;;;;;;;;;4999933;28;20037;-78
2022/12/25 05:20:25;;;;;;;21.05;10.07;;;;;;;;;;5017101;28;20025;-78
2022/12/25 05:22:51;;;;;;;21.20;10.30;;;;;;;;;;5040642;28;20117;-78
2022/12/25 05:25:16;;;;;;;16.80;10.93;;;;;;;;;;5028835;28;20476;-79
2022/12/25 05:27:42;;;;;;;17.92;9.52;;;;;;;;;;5038385;28;20030;-78
2022/12/25 05:30:07;;;;;;;15.75;8.77;;;;;;;;;;5047042;28;20381;-78
2022/12/25 05:32:33;;;;;;;20.13;9.88;;;;;;;;;;5035978;28;20032;-77
2022/12/25 05:34:59;;;;;;;16.40;9.63;;;;;;;;;;5053829;28;20064;-78
2022/12/25 05:37:25;;;;;;;17.90;9.95;;;;;;;;;;5023134;28;20036;-78
2022/12/25 05:39:50;;;;;;;20.73;10.38;;;;;;;;;;5056425;28;20060;-78
2022/12/25 05:42:16;;;;;;;18.55;9.73;;;;;;;;;;5056212;28;20075;-78
2022/12/25 05:44:41;;;;;;;18.35;9.73;;;;;;;;;;5039401;28;20032;-78
2022/12/25 05:47:07;;;;;;;17.38;9.02;;;;;;;;;;5057197;28;20037;-78
2022/12/25 05:49:32;;;;;;;19.25;9.45;;;;;;;;;;5057515;28;20120;-78
2022/12/25 05:51:57;;;;;;;19.38;10.48;;;;;;;;;;5058260;28;20067;-78
2022/12/25 05:54:23;;;;;;;18.80;10.65;;;;;;;;;;5057781;28;20358;-78
2022/12/25 05:56:48;;;;;;;23.90;11.15;;;;;;;;;;5057151;28;20140;-78
2022/12/25 05:59:14;;;;;;;19.73;9.95;;;;;;;;;;5057974;28;20028;-78
2022/12/25 06:01:39;;;;;;;22.92;10.25;;;;;;;;;;5060598;28;20348;-78
2022/12/25 06:04:05;;;;;;;18.05;9.20;;;;;;;;;;5061807;28;20044;-78
2022/12/25 06:06:30;;;;;;;21.00;9.85;;;;;;;;;;5060195;28;20035;-78
2022/12/25 06:08:56;;;;;;;22.20;10.52;;;;;;;;;;5040315;28;20080;-79
2022/12/25 06:11:21;;;;;;;24.33;12.00;;;;;;;;;;5043254;28;20021;-79
2022/12/25 06:13:50;;;;;;;20.30;9.55;;;;;;;;;;5044251;28;20021;-78
2022/12/25 06:16:16;;;;;;;17.83;9.70;;;;;;;;;;5061553;28;20032;-79
2022/12/25 06:18:43;;;;;;;19.27;9.75;;;;;;;;;;5060400;28;20346;-78
2022/12/25 06:21:11;;;;;;;19.48;10.32;;;;;;;;;;5058729;28;20055;-78
2022/12/25 06:23:37;;;;;;;20.75;10.00;;;;;;;;;;5024082;28;20060;-77
2022/12/25 06:26:04;;;;;;;22.27;11.48;;;;;;;;;;5039316;28;20048;-77
2022/12/25 06:28:29;;;;;;;20.95;11.73;;;;;;;;;;5039118;28;20037;-79
2022/12/25 06:30:55;;;;;;;21.63;12.10;;;;;;;;;;5035619;28;20127;-78
2022/12/25 06:33:20;;;;;;;20.58;11.35;;;;;;;;;;5036835;28;20033;-78
2022/12/25 06:35:46;;;;;;;20.17;10.98;;;;;;;;;;5002431;28;20034;-78
2022/12/25 06:38:11;;;;;;;29.20;12.80;;;;;;;;;;5018888;28;20041;-78
2022/12/25 06:40:36;;;;;;;26.20;12.57;;;;;;;;;;5019077;28;20351;-78
2022/12/25 06:43:02;;;;;;;24.27;12.02;;;;;;;;;;5036591;28;20409;-78
2022/12/25 06:45:27;;;;;;;20.88;11.75;;;;;;;;;;5018666;28;20033;-79
2022/12/25 06:47:53;;;;;;;29.08;14.90;;;;;;;;;;5018842;28;20040;-77
2022/12/25 06:50:18;;;;;;;30.88;14.25;;;;;;;;;;5035367;28;20030;-78
2022/12/25 06:52:44;;;;;;;23.73;12.25;;;;;;;;;;5002062;28;20037;-77
2022/12/25 06:55:10;;;;;;;24.80;11.80;;;;;;;;;;5036059;28;20025;-78
2022/12/25 06:57:35;;;;;;;22.90;12.75;;;;;;;;;;5018610;28;20482;-78
2022/12/25 07:00:01;;;;;;;26.17;13.52;;;;;;;;;;5035052;28;20026;-78
2022/12/25 07:02:26;;;;;;;30.30;14.40;;;;;;;;;;5036247;28;20033;-78
2022/12/25 07:04:52;;;;;;;28.77;13.57;;;;;;;;;;5036053;28;20032;-79
2022/12/25 07:07:17;;;;;;;22.80;11.60;;;;;;;;;;5035705;28;20033;-78
2022/12/25 07:09:43;;;;;;;20.58;11.23;;;;;;;;;;5001983;28;20176;-78
2022/12/25 07:12:19;;;;;;;18.67;11.07;;;;;;;;;;5035631;28;20021;-78
2022/12/25 07:14:47;;;;;;;22.88;12.23;;;;;;;;;;5035881;28;20466;-77
2022/12/25 07:17:14;;;;;;;23.55;12.77;;;;;;;;;;5018873;28;20045;-77
2022/12/25 07:19:40;;;;;;;22.13;12.98;;;;;;;;;;5034331;28;20069;-77
2022/12/25 07:22:05;;;;;;;21.42;12.43;;;;;;;;;;5034624;28;20096;-78
2022/12/25 07:24:31;;;;;;;18.63;12.02;;;;;;;;;;5034308;28;20026;-77
2022/12/25 07:26:56;;;;;;;20.40;11.25;;;;;;;;;;5035275;28;20371;-78
2022/12/25 07:29:21;;;;;;;17.30;11.00;;;;;;;;;;5035498;28;20124;-78
2022/12/25 07:31:50;;;;;;;18.08;10.95;;;;;;;;;;5035533;28;20511;-77
2022/12/25 07:34:16;;;;;;;16.23;9.60;;;;;;;;;;5035569;28;20095;-78
2022/12/25 07:36:41;;;;;;;20.00;11.10;;;;;;;;;;5017268;28;20179;-77
2022/12/25 07:39:09;;;;;;;23.70;11.65;;;;;;;;;;5034266;28;20463;-78
2022/12/25 07:41:34;;;;;;;21.98;11.55;;;;;;;;;;5017873;28;20029;-78
2022/12/25 07:44:00;;;;;;;19.85;10.68;;;;;;;;;;5017608;28;20379;-78
2022/12/25 07:46:27;;;;;;;22.45;10.52;;;;;;;;;;5017577;28;20025;-77
2022/12/25 07:48:52;;;;;;;18.55;10.63;;;;;;;;;;5035291;28;20033;-79
2022/12/25 07:51:18;;;;;;;19.88;10.55;;;;;;;;;;5016997;28;20059;-78
2022/12/25 07:53:43;;;;;;;20.38;10.32;;;;;;;;;;5035163;28;20026;-79
2022/12/25 07:56:16;;;;;;;17.25;9.45;;;;;;;;;;5034005;28;20055;-79
2022/12/25 07:58:42;;;;;;;16.92;10.10;;;;;;;;;;5017200;28;20455;-77
2022/12/25 08:01:16;;;;;;;20.40;10.57;;;;;;;;;;5017644;28;20037;-77
2022/12/25 08:03:42;;;;;;;15.13;8.65;;;;;;;;;;5033957;28;20112;-77
2022/12/25 08:06:09;;;;;;;17.85;9.70;;;;;;;;;;5016951;28;20060;-76
2022/12/25 08:08:34;;;;;;;14.48;9.10;;;;;;;;;;5017076;28;20389;-77
2022/12/25 08:11:00;;;;;;;15.80;8.82;;;;;;;;;;5017353;28;20116;-77
2022/12/25 08:13:25;;;;;;;17.23;9.55;;;;;;;;;;5034543;28;20022;-78
2022/12/25 08:15:58;;;;;;;14.68;8.93;;;;;;;;;;5034801;28;20034;-78
2022/12/25 08:18:23;;;;;;;18.23;9.60;;;;;;;;;;5033348;28;20039;-78
2022/12/25 08:20:49;;;;;;;21.38;10.95;;;;;;;;;;5033036;28;20128;-78
2022/12/25 08:23:14;;;;;;;18.75;9.90;;;;;;;;;;5017084;28;20029;-78
2022/12/25 08:25:40;;;;;;;23.52;10.38;;;;;;;;;;5033241;28;20029;-77
2022/12/25 08:28:05;;;;;;;21.45;10.65;;;;;;;;;;5033450;28;20045;-78
2022/12/25 08:30:31;;;;;;;18.23;9.13;;;;;;;;;;5034569;28;20044;-78
2022/12/25 08:32:56;;;;;;;15.90;8.13;;;;;;;;;;5034473;28;20366;-77
2022/12/25 08:35:21;;;;;;;17.58;8.00;;;;;;;;;;5033104;28;20025;-77
2022/12/25 08:37:50;;;;;;;15.45;7.55;;;;;;;;;;5034294;28;20116;-78
2022/12/25 08:40:16;;;;;;;16.65;8.30;;;;;;;;;;5016455;28;20033;-78
2022/12/25 08:42:41;;;;;;;17.45;9.25;;;;;;;;;;5034666;28;20382;-77
2022/12/25 08:45:07;;;;;;;18.25;9.13;;;;;;;;;;5034150;28;20022;-77
2022/12/25 08:47:33;;;;;;;16.00;8.45;;;;;;;;;;5033863;28;20347;-78
2022/12/25 08:49:58;;;;;;;19.20;9.63;;;;;;;;;;5033771;28;20673;-79
2022/12/25 08:52:23;;;;;;;12.55;7.68;;;;;;;;;;5017111;28;20108;-78
2022/12/25 08:54:49;;;;;;;15.60;8.63;;;;;;;;;;5034289;28;20037;-79
2022/12/25 08:57:14;;;;;;;11.80;7.82;;;;;;;;;;5033070;28;20034;-78
2022/12/25 08:59:40;;;;;;;16.55;9.13;;;;;;;;;;5016647;28;20033;-79
2022/12/25 09:02:05;;;;;;;14.20;7.72;;;;;;;;;;5016550;28;20041;-78
2022/12/25 09:04:31;;;;;;;17.20;8.80;;;;;;;;;;5033630;28;20428;-79
2022/12/25 09:06:57;;;;;;;13.70;8.05;;;;;;;;;;5016607;28;20049;-79
2022/12/25 09:09:27;;;;;;;17.08;8.25;;;;;;;;;;5034187;28;20049;-80
2022/12/25 09:11:52;;;;;;;13.82;7.60;;;;;;;;;;5035916;28;20032;-78
2022/12/25 09:14:17;;;;;;;12.52;7.00;;;;;;;;;;5038549;28;20116;-78
2022/12/25 09:16:43;;;;;;;16.98;9.18;;;;;;;;;;5038219;28;20033;-78
2022/12/25 09:19:08;;;;;;;16.90;8.55;;;;;;;;;;5038400;28;20045;-76
2022/12/25 09:21:35;;;;;;;12.40;6.97;;;;;;;;;;5037944;28;20037;-77
2022/12/25 09:24:01;;;;;;;15.27;8.63;;;;;;;;;;5020603;28;20040;-76
2022/12/25 09:26:27;;;;;;;15.10;7.00;;;;;;;;;;5036532;28;20045;-77
2022/12/25 09:28:52;;;;;;;18.27;11.00;;;;;;;;;;5020464;28;20037;-76
2022/12/25 09:31:19;;;;;;;17.70;11.68;;;;;;;;;;5020323;28;20029;-77
2022/12/25 09:33:44;;;;;;;14.57;7.82;;;;;;;;;;5020520;28;20141;-78
2022/12/25 09:36:10;;;;;;;11.90;6.00;;;;;;;;;;5020180;28;20109;-76
2022/12/25 09:38:35;;;;;;;11.85;6.55;;;;;;;;;;5036523;28;20065;-77
2022/12/25 09:41:12;;;;;;;15.27;6.40;;;;;;;;;;5020031;28;20041;-77
2022/12/25 09:43:45;;;;;;;13.65;6.68;;;;;;;;;;5036346;28;20027;-77
2022/12/25 09:46:14;;;;;;;11.73;6.07;;;;;;;;;;5020502;28;20030;-77
2022/12/25 09:48:39;;;;;;;11.68;5.97;;;;;;;;;;5019406;28;20466;-77
2022/12/25 09:51:10;;;;;;;9.68;5.40;;;;;;;;;;5019735;28;20037;-77
2022/12/25 09:53:37;;;;;;;14.27;5.88;;;;;;;;;;5020031;28;20363;-76
2022/12/25 09:56:12;;;;;;;11.23;6.45;;;;;;;;;;5019991;28;20373;-77
2022/12/25 09:58:37;;;;;;;13.45;6.97;;;;;;;;;;5036268;28;20139;-77
2022/12/25 10:01:26;;;;;;;12.90;6.05;;;;;;;;;;5019684;28;20210;-77
2022/12/25 10:04:13;;;;;;;12.23;7.00;;;;;;;;;;5036889;28;20033;-77
2022/12/25 10:07:04;;;;;;;15.02;7.03;;;;;;;;;;5037131;28;20068;-76
2022/12/25 10:09:55;;;;;;;15.32;7.18;;;;;;;;;;5019150;28;20032;-77
2022/12/25 10:12:32;;;;;;;12.23;5.82;;;;;;;;;;5038515;28;20362;-77
2022/12/25 10:15:04;;;;;;;10.15;6.10;;;;;;;;;;5019373;28;20033;-77
2022/12/25 10:17:38;;;;;;;15.68;9.27;;;;;;;;;;5019135;28;20025;-77
2022/12/25 10:20:28;;;;;;;15.88;7.78;;;;;;;;;;5019381;28;20457;-77
2022/12/25 10:22:56;;;;;;;17.65;8.32;;;;;;;;;;5036168;28;20466;-76
2022/12/25 10:25:23;;;;;;;10.30;6.30;;;;;;;;;;5035894;28;20473;-76
2022/12/25 10:27:51;;;;;;;13.30;6.00;;;;;;;;;;5018997;28;20115;-77
2022/12/25 10:30:26;;;;;;;11.98;6.85;;;;;;;;;;5035663;28;20092;-79
2022/12/25 10:32:51;;;;;;;10.68;5.80;;;;;;;;;;5035478;28;20030;-77
2022/12/25 10:35:20;;;;;;;16.98;5.93;;;;;;;;;;5019606;28;20037;-78
2022/12/25 10:38:24;;;;;;;9.95;5.68;;;;;;;;;;5022230;28;20030;-78
2022/12/25 10:41:05;;;;;;;11.23;5.38;;;;;;;;;;5018729;28;20033;-76
2022/12/25 10:43:36;;;;;;;12.77;5.15;;;;;;;;;;5036667;28;20113;-78
2022/12/25 10:46:08;;;;;;;10.00;5.70;;;;;;;;;;5018361;28;20037;-77
2022/12/25 10:48:33;;;;;;;10.82;5.57;;;;;;;;;;5035367;28;20107;-78
2022/12/25 10:50:59;;;;;;;13.70;6.30;;;;;;;;;;5018845;28;20446;-78
2022/12/25 10:53:26;;;;;;;10.75;5.82;;;;;;;;;;5035495;28;20093;-76
2022/12/25 10:56:00;;;;;;;11.98;5.97;;;;;;;;;;5018553;28;20033;-78
2022/12/25 10:58:25;;;;;;;11.52;5.68;;;;;;;;;;5019023;28;20099;-78
2022/12/25 11:00:59;;;;;;;10.07;5.22;;;;;;;;;;5018494;28;20038;-78
2022/12/25 11:03:27;;;;;;;10.02;4.82;;;;;;;;;;5018852;28;20034;-78
2022/12/25 11:05:53;;;;;;;10.38;5.20;;;;;;;;;;5035110;28;20033;-77
2022/12/25 11:08:24;;;;;;;10.55;5.40;;;;;;;;;;5018516;28;20032;-76
2022/12/25 11:11:14;;;;;;;11.60;5.45;;;;;;;;;;5034705;28;20417;-77
2022/12/25 11:14:03;;;;;;;6.85;4.35;;;;;;;;;;5034417;28;20136;-79
2022/12/25 11:16:37;;;;;;;8.47;4.17;;;;;;;;;;5020769;28;20427;-76
2022/12/25 11:19:02;;;;;;;9.30;4.82;;;;;;;;;;5034684;28;20280;-77
2022/12/25 11:21:32;;;;;;;8.80;5.07;;;;;;;;;;5018059;28;20112;-78
2022/12/25 11:24:05;;;;;;;9.95;4.93;;;;;;;;;;5034817;28;20450;-78
2022/12/25 11:26:35;;;;;;;8.35;4.20;;;;;;;;;;5018809;28;20100;-78
2022/12/25 11:29:01;;;;;;;11.85;4.40;;;;;;;;;;5021921;28;20469;-77
2022/12/25 11:31:38;;;;;;;7.93;3.65;;;;;;;;;;5054211;28;20036;-78
2022/12/25 11:34:34;;;;;;;8.60;3.50;;;;;;;;;;5053272;28;20357;-78
2022/12/25 11:37:00;;;;;;;4.93;2.38;;;;;;;;;;5055327;28;20058;-78
2022/12/25 11:39:33;;;;;;;8.30;3.53;;;;;;;;;;5037550;28;20087;-78
2022/12/25 11:42:03;;;;;;;6.05;2.63;;;;;;;;;;5054472;28;20029;-78
2022/12/25 11:44:47;;;;;;;6.90;3.47;;;;;;;;;;5055315;28;20037;-78
2022/12/25 11:47:37;;;;;;;6.90;2.97;;;;;;;;;;5055278;28;20443;-78
2022/12/25 11:50:35;;;;;;;6.78;2.70;;;;;;;;;;5040317;28;20036;-78
2022/12/25 11:53:05;;;;;;;6.78;2.72;;;;;;;;;;5054838;28;20470;-78
2022/12/25 11:55:40;;;;;;;3.90;2.50;;;;;;;;;;5053646;28;20021;-79
2022/12/25 11:58:14;;;;;;;6.38;3.22;;;;;;;;;;5037132;28;20465;-79
2022/12/25 12:00:39;;;;;;;8.27;3.03;;;;;;;;;;5037888;28;20032;-78
2022/12/25 12:03:30;;;;;;;6.25;3.35;;;;;;;;;;5020871;28;20086;-79
2022/12/25 12:06:12;;;;;;;10.38;2.38;;;;;;;;;;5036901;28;20043;-78
2022/12/25 12:08:38;;;;;;;6.40;2.42;;;;;;;;;;5054788;28;20537;-77
2022/12/25 12:11:15;;;;;;;4.10;2.15;;;;;;;;;;5054951;28;20118;-77
2022/12/25 12:13:58;;;;;;;7.07;2.42;;;;;;;;;;5036436;28;20037;-77
2022/12/25 12:16:23;;;;;;;5.35;1.95;;;;;;;;;;5054618;28;20029;-77
2022/12/25 12:18:49;;;;;;;5.03;2.53;;;;;;;;;;5053552;28;20461;-78
2022/12/25 12:21:20;;;;;;;5.13;2.40;;;;;;;;;;5053782;28;20025;-77
2022/12/25 12:23:48;;;;;;;5.85;2.63;;;;;;;;;;5036798;28;20033;-78
2022/12/25 12:26:23;;;;;;;5.93;2.70;;;;;;;;;;5036476;28;20056;-77
2022/12/25 12:28:49;;;;;;;6.63;3.20;;;;;;;;;;5050497;28;20484;-78
2022/12/25 12:31:14;;;;;;;5.47;2.78;;;;;;;;;;5033149;28;20041;-79
2022/12/25 12:33:49;;;;;;;9.00;3.58;;;;;;;;;;5034601;28;20446;-78
2022/12/25 12:36:14;;;;;;;5.03;2.83;;;;;;;;;;5033684;28;20041;-78
2022/12/25 12:38:42;;;;;;;8.95;4.10;;;;;;;;;;5000513;28;20029;-78
2022/12/25 12:41:07;;;;;;;7.00;3.08;;;;;;;;;;5033184;28;20124;-78
2022/12/25 12:43:42;;;;;;;7.88;4.30;;;;;;;;;;5016731;28;20104;-78
2022/12/25 12:46:20;;;;;;;6.68;3.80;;;;;;;;;;5016555;28;20363;-78
2022/12/25 12:48:48;;;;;;;8.73;3.60;;;;;;;;;;5016579;28;20025;-78
2022/12/25 12:51:31;;;;;;;14.00;5.82;;;;;;;;;;5033253;28;20029;-79
2022/12/25 12:54:21;;;;;;;6.43;3.42;;;;;;;;;;5033318;28;20040;-78
2022/12/25 12:57:00;;;;;;;17.55;5.50;;;;;;;;;;5016226;28;20352;-78
2022/12/25 12:59:26;;;;;;;10.90;5.47;;;;;;;;;;5016546;28;20443;-78
2022/12/25 13:02:08;;;;;;;10.82;5.07;;;;;;;;;;5032759;28;20025;-79
2022/12/25 13:04:47;;;;;;;8.85;3.90;;;;;;;;;;5016392;28;20473;-78
2022/12/25 13:07:43;;;;;;;15.13;5.37;;;;;;;;;;5049373;28;20500;-78
2022/12/25 13:10:27;;;;;;;12.70;5.10;;;;;;;;;;5019478;28;20458;-79
2022/12/25 13:12:54;;;;;;;8.10;3.78;;;;;;;;;;5032687;28;20450;-78
2022/12/25 13:15:19;;;;;;;12.38;5.22;;;;;;;;;;5033927;28;20022;-78
2022/12/25 13:17:46;;;;;;;13.80;5.60;;;;;;;;;;5032931;28;20041;-78
2022/12/25 13:20:35;;;;;;;13.65;5.60;;;;;;;;;;5000233;28;20439;-79
2022/12/25 13:23:11;;;;;;;18.63;5.95;;;;;;;;;;5007002;28;20055;-79
2022/12/25 13:25:36;;;;;;;10.80;5.40;;;;;;;;;;5032613;28;20025;-78
2022/12/25 13:28:03;;;;;;;18.55;6.80;;;;;;;;;;5016405;28;20529;-77
2022/12/25 13:30:29;;;;;;;15.02;5.70;;;;;;;;;;5016366;28;20049;-78
2022/12/25 13:32:55;;;;;;;14.85;4.72;;;;;;;;;;5016295;28;20036;-77
2022/12/25 13:35:21;;;;;;;12.88;4.70;;;;;;;;;;5016553;28;20490;-78
2022/12/25 13:37:46;;;;;;;12.30;4.50;;;;;;;;;;5016055;28;20116;-77
2022/12/25 13:40:26;;;;;;;12.70;5.10;;;;;;;;;;5016104;28;20034;-78
2022/12/25 13:42:59;;;;;;;11.93;4.65;;;;;;;;;;5032852;28;20113;-77
2022/12/25 13:45:26;;;;;;;12.43;4.22;;;;;;;;;;5032604;28;20040;-77
2022/12/25 13:47:51;;;;;;;12.82;4.30;;;;;;;;;;5015947;28;20542;-78
2022/12/25 13:50:25;;;;;;;11.65;4.72;;;;;;;;;;5016068;28;20104;-78
2022/12/25 13:52:51;;;;;;;9.38;3.92;;;;;;;;;;5033568;28;20077;-78
2022/12/25 13:55:18;;;;;;;12.57;4.70;;;;;;;;;;4999522;28;20030;-78
2022/12/25 13:57:56;;;;;;;13.32;5.22;;;;;;;;;;5002499;28;20049;-78
2022/12/25 14:00:58;;;;;;;12.02;5.10;;;;;;;;;;5036635;28;20029;-79
2022/12/25 14:03:41;;;;;;;13.48;4.80;;;;;;;;;;5004825;28;20052;-79
2022/12/25 14:06:27;;;;;;;19.10;5.65;;;;;;;;;;5036030;28;20150;-78
2022/12/25 14:08:57;;;;;;;15.32;6.53;;;;;;;;;;5035846;28;20033;-78
2022/12/25 14:11:23;;;;;;;19.83;8.50;;;;;;;;;;5003983;28;20033;-79
2022/12/25 14:13:51;;;;;;;25.20;11.85;;;;;;;;;;5019562;28;20021;-78
2022/12/25 14:16:17;;;;;;;23.17;9.10;;;;;;;;;;5019775;28;20037;-78
2022/12/25 14:18:56;;;;;;;23.27;10.70;;;;;;;;;;5036346;28;20045;-78
2022/12/25 14:21:27;;;;;;;18.25;8.18;;;;;;;;;;5019863;28;20037;-77
2022/12/25 14:23:52;;;;;;;13.38;5.38;;;;;;;;;;5018864;28;20028;-77
2022/12/25 14:26:26;;;;;;;15.25;5.95;;;;;;;;;;5019076;28;20022;-77
2022/12/25 14:28:59;;;;;;;18.40;7.72;;;;;;;;;;5018969;28;20372;-77
2022/12/25 14:31:24;;;;;;;20.90;7.50;;;;;;;;;;5035623;28;20101;-77
2022/12/25 14:33:50;;;;;;;17.92;8.30;;;;;;;;;;5018786;28;20076;-77
2022/12/25 14:36:15;;;;;;;24.90;8.27;;;;;;;;;;5019186;28;20403;-78
2022/12/25 14:38:42;;;;;;;19.27;8.85;;;;;;;;;;5018869;28;20029;-78
2022/12/25 14:41:32;;;;;;;17.73;8.88;;;;;;;;;;5018858;28;20469;-78
2022/12/25 14:43:58;;;;;;;22.85;10.07;;;;;;;;;;5003828;28;20489;-77
2022/12/25 14:46:25;;;;;;;21.55;9.98;;;;;;;;;;5035105;28;20038;-78
2022/12/25 14:49:04;;;;;;;21.77;9.93;;;;;;;;;;5035160;28;20033;-78
2022/12/25 14:51:30;;;;;;;26.58;12.77;;;;;;;;;;5035959;28;20029;-77
2022/12/25 14:53:57;;;;;;;25.23;12.10;;;;;;;;;;5018528;28;20477;-77
2022/12/25 14:56:24;;;;;;;26.60;11.18;;;;;;;;;;5018498;28;20485;-77
2022/12/25 14:58:56;;;;;;;19.50;9.13;;;;;;;;;;5002518;28;20045;-77
2022/12/25 15:01:27;;;;;;;20.77;10.05;;;;;;;;;;5035172;28;20038;-77
2022/12/25 15:04:02;;;;;;;29.38;12.27;;;;;;;;;;5019303;28;20116;-77
2022/12/25 15:06:28;;;;;;;27.85;11.85;;;;;;;;;;5034448;28;20056;-76
2022/12/25 15:08:57;;;;;;;32.95;14.95;;;;;;;;;;5018420;28;20454;-77
2022/12/25 15:11:23;;;;;;;45.83;19.93;;;;;;;;;;5035031;28;20037;-76
2022/12/25 15:13:48;;;;;;;44.00;18.95;;;;;;;;;;5034483;28;20116;-77
2022/12/25 15:16:29;;;;;;;60.45;30.50;;;;;;;;;;5035955;28;20033;-75
2022/12/25 15:18:55;;;;;;;69.35;29.25;;;;;;;;;;5019708;28;20477;-77
2022/12/25 15:21:25;;;;;;;65.13;27.33;;;;;;;;;;5034423;28;20030;-78
2022/12/25 15:23:52;;;;;;;67.53;27.17;;;;;;;;;;5018250;28;20029;-79
2022/12/25 15:26:18;;;;;;;61.33;25.90;;;;;;;;;;5034556;28;20037;-78
2022/12/25 15:28:43;;;;;;;66.45;25.52;;;;;;;;;;5035559;28;20048;-77
2022/12/25 15:31:32;;;;;;;64.28;26.30;;;;;;;;;;5035757;28;20036;-78
2022/12/25 15:33:59;;;;;;;64.35;26.48;;;;;;;;;;5027759;28;20041;-78
2022/12/25 15:36:25;;;;;;;110.82;44.03;;;;;;;;;;5035334;28;20037;-78
2022/12/25 15:38:50;;;;;;;70.47;29.55;;;;;;;;;;5034572;28;20123;-78
2022/12/25 15:44:03;;;;;;;55.75;22.90;;;;;;;;;;5034173;28;20032;-78
2022/12/25 15:46:28;;;;;;;60.92;25.40;;;;;;;;;;5036221;28;20033;-78
2022/12/25 15:48:54;;;;;;;58.20;26.58;;;;;;;;;;5035988;28;20083;-78
2022/12/25 15:51:19;;;;;;;72.85;30.17;;;;;;;;;;5036915;28;20104;-79
2022/12/25 15:53:45;;;;;;;78.38;35.97;;;;;;;;;;5022972;28;20022;-78
2022/12/25 15:56:10;;;;;;;65.63;29.88;;;;;;;;;;5039103;28;20029;-78
2022/12/25 15:58:36;;;;;;;62.38;27.15;;;;;;;;;;5001370;28;20040;-77
2022/12/25 16:01:01;;;;;;;66.18;28.50;;;;;;;;;;5034844;28;20032;-76
2022/12/25 16:03:27;;;;;;;69.70;34.45;;;;;;;;;;5035194;28;20034;-77
2022/12/25 16:05:53;;;;;;;74.68;33.10;;;;;;;;;;5033389;28;20030;-77
2022/12/25 16:08:19;;;;;;;70.13;33.40;;;;;;;;;;5017203;28;20037;-77
2022/12/25 16:10:44;;;;;;;85.60;40.70;;;;;;;;;;5017458;28;20454;-77
2022/12/25 16:13:10;;;;;;;108.38;49.97;;;;;;;;;;5016979;28;20029;-77
2022/12/25 16:15:35;;;;;;;177.48;82.97;;;;;;;;;;5033711;28;20065;-77
2022/12/25 16:18:01;;;;;;;114.30;49.75;;;;;;;;;;5017012;28;20049;-77
2022/12/25 16:20:26;;;;;;;150.07;67.97;;;;;;;;;;5033953;28;20104;-77
2022/12/25 16:22:51;;;;;;;148.38;64.60;;;;;;;;;;5034617;28;20029;-76